sensor_id;sensor_type;location;lat;lon;timestamp;temperature;humidity
8643;DHT22;4359;49.358;11.256;2022-09-16T00:00:35;11.80;99.90
8643;DHT22;4359;49.358;11.256;2022-09-16T00:03:01;11.80;99.90
8643;DHT22;4359;49.358;11.256;2022-09-16T00:05:27;11.80;99.90
8643;DHT22;4359;49.358;11.256;2022-09-16T00:07:53;11.80;99.90
8643;DHT22;4359;49.358;11.256;2022-09-16T00:10:20;11.90;99.90
8643;DHT22;4359;49.358;11.256;2022-09-16T00:12:46;11.90;99.90
8643;DHT22;4359;49.358;11.256;2022-09-16T00:15:12;11.90;99.90
8643;DHT22;4359;49.358;11.256;2022-09-16T00:17:37;11.90;99.90
8643;DHT22;4359;49.358;11.256;2022-09-16T00:20:04;12.00;99.90
8643;DHT22;4359;49.358;11.256;2022-09-16T00:22:30;12.00;99.90
8643;DHT22;4359;49.358;11.256;2022-09-16T00:24:56;12.00;99.90
8643;DHT22;4359;49.358;11.256;2022-09-16T00:27:21;12.00;99.90
8643;DHT22;4359;49.358;11.256;2022-09-16T00:29:47;12.00;99.90
8643;DHT22;4359;49.358;11.256;2022-09-16T00:32:13;12.00;99.90
8643;DHT22;4359;49.358;11.256;2022-09-16T00:34:38;12.00;99.90
8643;DHT22;4359;49.358;11.256;2022-09-16T00:37:04;12.00;99.90
8643;DHT22;4359;49.358;11.256;2022-09-16T00:39:33;12.00;99.90
8643;DHT22;4359;49.358;11.256;2022-09-16T00:42:00;12.00;99.90
8643;DHT22;4359;49.358;11.256;2022-09-16T00:44:55;12.00;99.90
8643;DHT22;4359;49.358;11.256;2022-09-16T00:47:35;12.00;99.90
8643;DHT22;4359;49.358;11.256;2022-09-16T00:50:09;12.00;99.90
8643;DHT22;4359;49.358;11.256;2022-09-16T00:52:37;12.00;99.90
8643;DHT22;4359;49.358;11.256;2022-09-16T00:55:07;12.00;99.90
8643;DHT22;4359;49.358;11.256;2022-09-16T00:57:34;12.00;99.90
8643;DHT22;4359;49.358;11.256;2022-09-16T01:00:01;11.90;99.90
8643;DHT22;4359;49.358;11.256;2022-09-16T01:02:27;11.90;99.90
8643;DHT22;4359;49.358;11.256;2022-09-16T01:04:58;11.90;99.90
8643;DHT22;4359;49.358;11.256;2022-09-16T01:07:35;11.90;99.90
8643;DHT22;4359;49.358;11.256;2022-09-16T01:10:03;11.90;99.90
8643;DHT22;4359;49.358;11.256;2022-09-16T01:12:30;11.90;99.90
8643;DHT22;4359;49.358;11.256;2022-09-16T01:14:57;11.90;99.90
8643;DHT22;4359;49.358;11.256;2022-09-16T01:40:56;11.80;99.90
8643;DHT22;4359;49.358;11.256;2022-09-16T01:43:48;11.70;99.90
8643;DHT22;4359;49.358;11.256;2022-09-16T01:46:27;11.70;99.90
8643;DHT22;4359;49.358;11.256;2022-09-16T01:49:05;11.70;99.90
8643;DHT22;4359;49.358;11.256;2022-09-16T01:52:19;11.60;99.90
8643;DHT22;4359;49.358;11.256;2022-09-16T01:54:44;11.60;99.90
8643;DHT22;4359;49.358;11.256;2022-09-16T01:57:22;11.60;99.90
8643;DHT22;4359;49.358;11.256;2022-09-16T01:59:51;11.60;99.90
8643;DHT22;4359;49.358;11.256;2022-09-16T02:05:18;11.60;99.90
8643;DHT22;4359;49.358;11.256;2022-09-16T02:07:50;11.60;99.90
8643;DHT22;4359;49.358;11.256;2022-09-16T02:10:28;11.60;99.90
8643;DHT22;4359;49.358;11.256;2022-09-16T02:13:07;11.60;99.90
8643;DHT22;4359;49.358;11.256;2022-09-16T02:15:37;11.60;99.90
8643;DHT22;4359;49.358;11.256;2022-09-16T02:18:10;11.60;99.90
8643;DHT22;4359;49.358;11.256;2022-09-16T02:20:41;11.60;99.90
8643;DHT22;4359;49.358;11.256;2022-09-16T02:23:15;11.60;99.90
8643;DHT22;4359;49.358;11.256;2022-09-16T02:25:43;11.60;99.90
8643;DHT22;4359;49.358;11.256;2022-09-16T02:28:25;11.60;99.90
8643;DHT22;4359;49.358;11.256;2022-09-16T02:30:54;11.60;99.90
8643;DHT22;4359;49.358;11.256;2022-09-16T02:33:22;11.60;99.90
8643;DHT22;4359;49.358;11.256;2022-09-16T02:35:52;11.60;99.90
8643;DHT22;4359;49.358;11.256;2022-09-16T02:38:45;11.60;99.90
8643;DHT22;4359;49.358;11.256;2022-09-16T02:41:12;11.60;99.90
8643;DHT22;4359;49.358;11.256;2022-09-16T02:43:43;11.60;99.90
8643;DHT22;4359;49.358;11.256;2022-09-16T02:49:12;11.60;99.90
8643;DHT22;4359;49.358;11.256;2022-09-16T02:51:55;11.60;99.90
8643;DHT22;4359;49.358;11.256;2022-09-16T02:54:48;11.60;99.90
8643;DHT22;4359;49.358;11.256;2022-09-16T02:57:16;11.60;99.90
8643;DHT22;4359;49.358;11.256;2022-09-16T02:59:42;11.60;99.90
8643;DHT22;4359;49.358;11.256;2022-09-16T03:02:08;11.60;99.90
8643;DHT22;4359;49.358;11.256;2022-09-16T03:04:34;11.60;99.90
8643;DHT22;4359;49.358;11.256;2022-09-16T03:07:03;11.70;99.90
8643;DHT22;4359;49.358;11.256;2022-09-16T03:09:29;11.60;99.90
8643;DHT22;4359;49.358;11.256;2022-09-16T03:17:52;11.70;99.90
8643;DHT22;4359;49.358;11.256;2022-09-16T03:23:16;11.60;99.90
8643;DHT22;4359;49.358;11.256;2022-09-16T03:26:10;11.60;99.90
8643;DHT22;4359;49.358;11.256;2022-09-16T03:28:54;11.60;99.90
8643;DHT22;4359;49.358;11.256;2022-09-16T03:31:30;11.60;99.90
8643;DHT22;4359;49.358;11.256;2022-09-16T03:34:07;11.60;99.90
8643;DHT22;4359;49.358;11.256;2022-09-16T03:36:38;11.60;99.90
8643;DHT22;4359;49.358;11.256;2022-09-16T03:39:05;11.60;99.90
8643;DHT22;4359;49.358;11.256;2022-09-16T03:41:32;11.60;99.90
8643;DHT22;4359;49.358;11.256;2022-09-16T03:43:59;11.50;99.90
8643;DHT22;4359;49.358;11.256;2022-09-16T03:46:25;11.60;99.90
8643;DHT22;4359;49.358;11.256;2022-09-16T03:48:54;11.60;99.90
8643;DHT22;4359;49.358;11.256;2022-09-16T03:51:20;11.50;99.90
8643;DHT22;4359;49.358;11.256;2022-09-16T03:53:45;11.60;99.90
8643;DHT22;4359;49.358;11.256;2022-09-16T03:56:11;11.50;99.90
8643;DHT22;4359;49.358;11.256;2022-09-16T03:58:37;11.50;99.90
8643;DHT22;4359;49.358;11.256;2022-09-16T04:01:02;11.50;99.90
8643;DHT22;4359;49.358;11.256;2022-09-16T04:03:28;11.40;99.90
8643;DHT22;4359;49.358;11.256;2022-09-16T04:05:55;11.40;99.90
8643;DHT22;4359;49.358;11.256;2022-09-16T04:08:21;11.40;99.90
8643;DHT22;4359;49.358;11.256;2022-09-16T04:11:01;11.40;99.90
8643;DHT22;4359;49.358;11.256;2022-09-16T04:13:31;11.40;99.90
8643;DHT22;4359;49.358;11.256;2022-09-16T04:15:57;11.40;99.90
8643;DHT22;4359;49.358;11.256;2022-09-16T04:18:23;11.30;99.90
8643;DHT22;4359;49.358;11.256;2022-09-16T04:20:49;11.30;99.90
8643;DHT22;4359;49.358;11.256;2022-09-16T04:23:14;11.30;99.90
8643;DHT22;4359;49.358;11.256;2022-09-16T04:25:40;11.30;99.90
8643;DHT22;4359;49.358;11.256;2022-09-16T04:28:06;11.30;99.90
8643;DHT22;4359;49.358;11.256;2022-09-16T04:30:32;11.20;99.90
8643;DHT22;4359;49.358;11.256;2022-09-16T04:32:58;11.30;99.90
8643;DHT22;4359;49.358;11.256;2022-09-16T04:35:24;11.30;99.90
8643;DHT22;4359;49.358;11.256;2022-09-16T04:37:51;11.30;99.90
8643;DHT22;4359;49.358;11.256;2022-09-16T04:40:17;11.20;99.90
8643;DHT22;4359;49.358;11.256;2022-09-16T04:42:49;11.20;99.90
8643;DHT22;4359;49.358;11.256;2022-09-16T04:45:15;11.20;99.90
8643;DHT22;4359;49.358;11.256;2022-09-16T04:47:41;11.20;99.90
8643;DHT22;4359;49.358;11.256;2022-09-16T04:50:07;11.20;99.90
8643;DHT22;4359;49.358;11.256;2022-09-16T04:52:33;11.20;99.90
8643;DHT22;4359;49.358;11.256;2022-09-16T04:54:59;11.20;99.90
8643;DHT22;4359;49.358;11.256;2022-09-16T04:57:24;11.20;99.90
8643;DHT22;4359;49.358;11.256;2022-09-16T04:59:50;11.20;99.90
8643;DHT22;4359;49.358;11.256;2022-09-16T05:02:15;11.20;99.90
8643;DHT22;4359;49.358;11.256;2022-09-16T05:04:41;11.20;99.90
8643;DHT22;4359;49.358;11.256;2022-09-16T05:07:07;11.30;99.90
8643;DHT22;4359;49.358;11.256;2022-09-16T05:09:33;11.30;99.90
8643;DHT22;4359;49.358;11.256;2022-09-16T05:11:59;11.40;99.90
8643;DHT22;4359;49.358;11.256;2022-09-16T05:14:26;11.30;99.90
8643;DHT22;4359;49.358;11.256;2022-09-16T05:16:52;11.40;99.90
8643;DHT22;4359;49.358;11.256;2022-09-16T05:19:18;11.40;99.90
8643;DHT22;4359;49.358;11.256;2022-09-16T05:21:44;11.30;99.90
8643;DHT22;4359;49.358;11.256;2022-09-16T05:24:11;11.40;99.90
8643;DHT22;4359;49.358;11.256;2022-09-16T05:26:40;11.30;99.90
8643;DHT22;4359;49.358;11.256;2022-09-16T05:29:14;11.30;99.90
8643;DHT22;4359;49.358;11.256;2022-09-16T05:31:42;11.30;99.90
8643;DHT22;4359;49.358;11.256;2022-09-16T05:34:16;11.30;99.90
8643;DHT22;4359;49.358;11.256;2022-09-16T05:36:43;11.30;99.90
8643;DHT22;4359;49.358;11.256;2022-09-16T05:39:12;11.30;99.90
8643;DHT22;4359;49.358;11.256;2022-09-16T05:41:41;11.30;99.90
8643;DHT22;4359;49.358;11.256;2022-09-16T05:44:06;11.30;99.90
8643;DHT22;4359;49.358;11.256;2022-09-16T05:46:32;11.30;99.90
8643;DHT22;4359;49.358;11.256;2022-09-16T05:48:58;11.30;99.90
8643;DHT22;4359;49.358;11.256;2022-09-16T05:51:24;11.30;99.90
8643;DHT22;4359;49.358;11.256;2022-09-16T05:53:52;11.30;99.90
8643;DHT22;4359;49.358;11.256;2022-09-16T05:56:18;11.30;99.90
8643;DHT22;4359;49.358;11.256;2022-09-16T05:58:45;11.30;99.90
8643;DHT22;4359;49.358;11.256;2022-09-16T06:01:17;11.40;99.90
8643;DHT22;4359;49.358;11.256;2022-09-16T06:03:44;11.40;99.90
8643;DHT22;4359;49.358;11.256;2022-09-16T06:06:17;11.50;99.90
8643;DHT22;4359;49.358;11.256;2022-09-16T06:08:44;11.50;99.90
8643;DHT22;4359;49.358;11.256;2022-09-16T06:11:10;11.60;99.90
8643;DHT22;4359;49.358;11.256;2022-09-16T06:13:37;11.60;99.90
8643;DHT22;4359;49.358;11.256;2022-09-16T06:16:04;11.70;99.90
8643;DHT22;4359;49.358;11.256;2022-09-16T06:18:31;11.70;99.90
8643;DHT22;4359;49.358;11.256;2022-09-16T06:21:00;11.80;99.90
8643;DHT22;4359;49.358;11.256;2022-09-16T06:23:26;11.80;99.90
8643;DHT22;4359;49.358;11.256;2022-09-16T06:26:06;11.90;99.90
8643;DHT22;4359;49.358;11.256;2022-09-16T06:28:32;11.90;99.90
8643;DHT22;4359;49.358;11.256;2022-09-16T06:33:35;11.90;99.90
8643;DHT22;4359;49.358;11.256;2022-09-16T06:36:14;11.90;99.90
8643;DHT22;4359;49.358;11.256;2022-09-16T06:38:40;12.00;99.90
8643;DHT22;4359;49.358;11.256;2022-09-16T06:41:08;12.10;99.90
8643;DHT22;4359;49.358;11.256;2022-09-16T06:43:35;12.10;99.90
8643;DHT22;4359;49.358;11.256;2022-09-16T06:46:03;12.20;99.90
8643;DHT22;4359;49.358;11.256;2022-09-16T06:48:32;12.20;99.90
8643;DHT22;4359;49.358;11.256;2022-09-16T06:51:02;12.30;99.90
8643;DHT22;4359;49.358;11.256;2022-09-16T06:53:29;12.30;99.90
8643;DHT22;4359;49.358;11.256;2022-09-16T06:55:58;12.40;99.90
8643;DHT22;4359;49.358;11.256;2022-09-16T06:58:24;12.30;99.90
8643;DHT22;4359;49.358;11.256;2022-09-16T07:00:49;12.20;99.90
8643;DHT22;4359;49.358;11.256;2022-09-16T07:03:16;12.30;99.90
8643;DHT22;4359;49.358;11.256;2022-09-16T07:05:41;12.30;99.90
8643;DHT22;4359;49.358;11.256;2022-09-16T07:08:07;12.20;99.90
8643;DHT22;4359;49.358;11.256;2022-09-16T07:10:32;12.30;99.90
8643;DHT22;4359;49.358;11.256;2022-09-16T07:12:58;12.30;99.90
8643;DHT22;4359;49.358;11.256;2022-09-16T07:15:24;12.30;99.90
8643;DHT22;4359;49.358;11.256;2022-09-16T07:17:53;12.30;99.90
8643;DHT22;4359;49.358;11.256;2022-09-16T07:20:19;12.40;99.90
8643;DHT22;4359;49.358;11.256;2022-09-16T07:22:45;12.60;99.90
8643;DHT22;4359;49.358;11.256;2022-09-16T07:25:15;12.60;99.90
8643;DHT22;4359;49.358;11.256;2022-09-16T07:27:41;12.70;99.90
8643;DHT22;4359;49.358;11.256;2022-09-16T07:30:07;12.70;99.90
8643;DHT22;4359;49.358;11.256;2022-09-16T07:32:33;12.80;99.90
8643;DHT22;4359;49.358;11.256;2022-09-16T07:34:58;13.00;99.90
8643;DHT22;4359;49.358;11.256;2022-09-16T07:37:24;13.10;99.90
8643;DHT22;4359;49.358;11.256;2022-09-16T07:39:50;13.20;99.90
8643;DHT22;4359;49.358;11.256;2022-09-16T07:42:15;13.20;99.90
8643;DHT22;4359;49.358;11.256;2022-09-16T07:44:41;13.20;99.90
8643;DHT22;4359;49.358;11.256;2022-09-16T07:47:06;13.30;99.90
8643;DHT22;4359;49.358;11.256;2022-09-16T07:49:32;13.40;99.90
8643;DHT22;4359;49.358;11.256;2022-09-16T07:51:58;13.50;99.90
8643;DHT22;4359;49.358;11.256;2022-09-16T07:54:24;13.50;99.90
8643;DHT22;4359;49.358;11.256;2022-09-16T07:56:49;13.50;99.90
8643;DHT22;4359;49.358;11.256;2022-09-16T07:59:17;13.50;99.90
8643;DHT22;4359;49.358;11.256;2022-09-16T08:01:43;13.50;99.90
8643;DHT22;4359;49.358;11.256;2022-09-16T08:04:09;13.70;99.90
8643;DHT22;4359;49.358;11.256;2022-09-16T08:06:37;13.80;99.90
8643;DHT22;4359;49.358;11.256;2022-09-16T08:09:03;13.80;99.90
8643;DHT22;4359;49.358;11.256;2022-09-16T08:11:30;13.80;99.90
8643;DHT22;4359;49.358;11.256;2022-09-16T08:13:59;13.90;99.90
8643;DHT22;4359;49.358;11.256;2022-09-16T08:16:25;14.00;99.90
8643;DHT22;4359;49.358;11.256;2022-09-16T08:18:53;14.10;99.90
8643;DHT22;4359;49.358;11.256;2022-09-16T08:21:22;13.80;99.90
8643;DHT22;4359;49.358;11.256;2022-09-16T08:23:49;13.90;99.90
8643;DHT22;4359;49.358;11.256;2022-09-16T08:26:17;13.90;99.90
8643;DHT22;4359;49.358;11.256;2022-09-16T08:28:45;13.90;99.90
8643;DHT22;4359;49.358;11.256;2022-09-16T08:31:11;14.00;99.90
8643;DHT22;4359;49.358;11.256;2022-09-16T08:33:40;14.10;99.90
8643;DHT22;4359;49.358;11.256;2022-09-16T08:38:43;14.30;99.90
8643;DHT22;4359;49.358;11.256;2022-09-16T08:46:35;14.10;99.90
8643;DHT22;4359;49.358;11.256;2022-09-16T08:51:52;14.10;99.90
8643;DHT22;4359;49.358;11.256;2022-09-16T08:54:29;14.10;99.90
8643;DHT22;4359;49.358;11.256;2022-09-16T08:57:00;14.20;99.90
8643;DHT22;4359;49.358;11.256;2022-09-16T08:59:29;14.30;99.90
8643;DHT22;4359;49.358;11.256;2022-09-16T09:05:00;14.60;99.90
8643;DHT22;4359;49.358;11.256;2022-09-16T09:10:23;14.50;99.90
8643;DHT22;4359;49.358;11.256;2022-09-16T09:15:55;14.10;99.90
8643;DHT22;4359;49.358;11.256;2022-09-16T09:18:58;14.20;99.90
8643;DHT22;4359;49.358;11.256;2022-09-16T09:21:32;14.20;99.90
8643;DHT22;4359;49.358;11.256;2022-09-16T09:26:53;14.10;99.90
8643;DHT22;4359;49.358;11.256;2022-09-16T09:35:45;13.60;99.90
8643;DHT22;4359;49.358;11.256;2022-09-16T09:46:43;13.80;99.90
8643;DHT22;4359;49.358;11.256;2022-09-16T09:49:13;13.70;99.90
8643;DHT22;4359;49.358;11.256;2022-09-16T09:51:48;13.90;99.90
8643;DHT22;4359;49.358;11.256;2022-09-16T09:56:54;14.40;99.90
8643;DHT22;4359;49.358;11.256;2022-09-16T09:59:30;14.50;99.90
8643;DHT22;4359;49.358;11.256;2022-09-16T10:01:58;14.50;99.90
8643;DHT22;4359;49.358;11.256;2022-09-16T10:04:25;14.40;99.90
8643;DHT22;4359;49.358;11.256;2022-09-16T10:06:53;14.50;99.90
8643;DHT22;4359;49.358;11.256;2022-09-16T10:09:20;14.40;99.90
8643;DHT22;4359;49.358;11.256;2022-09-16T10:11:53;14.40;99.90
8643;DHT22;4359;49.358;11.256;2022-09-16T10:14:35;14.50;99.90
8643;DHT22;4359;49.358;11.256;2022-09-16T10:17:04;14.70;99.90
8643;DHT22;4359;49.358;11.256;2022-09-16T10:19:47;14.60;99.90
8643;DHT22;4359;49.358;11.256;2022-09-16T10:22:27;14.40;99.90
8643;DHT22;4359;49.358;11.256;2022-09-16T10:27:29;14.70;99.90
8643;DHT22;4359;49.358;11.256;2022-09-16T10:30:18;14.50;99.90
8643;DHT22;4359;49.358;11.256;2022-09-16T10:33:04;14.50;99.90
8643;DHT22;4359;49.358;11.256;2022-09-16T10:35:33;14.50;99.90
8643;DHT22;4359;49.358;11.256;2022-09-16T10:38:18;14.70;99.90
8643;DHT22;4359;49.358;11.256;2022-09-16T10:40:55;14.50;99.90
8643;DHT22;4359;49.358;11.256;2022-09-16T10:43:23;14.30;99.90
8643;DHT22;4359;49.358;11.256;2022-09-16T10:45:52;14.40;99.90
8643;DHT22;4359;49.358;11.256;2022-09-16T10:48:25;14.50;99.90
8643;DHT22;4359;49.358;11.256;2022-09-16T10:50:53;14.50;99.90
8643;DHT22;4359;49.358;11.256;2022-09-16T10:53:22;14.60;99.90
8643;DHT22;4359;49.358;11.256;2022-09-16T10:55:58;14.70;99.90
8643;DHT22;4359;49.358;11.256;2022-09-16T10:58:24;14.60;99.90
8643;DHT22;4359;49.358;11.256;2022-09-16T11:11:52;15.40;99.90
8643;DHT22;4359;49.358;11.256;2022-09-16T11:22:46;15.60;99.90
8643;DHT22;4359;49.358;11.256;2022-09-16T11:25:35;15.30;99.90
8643;DHT22;4359;49.358;11.256;2022-09-16T11:30:36;15.00;99.90
8643;DHT22;4359;49.358;11.256;2022-09-16T11:33:22;15.10;99.90
8643;DHT22;4359;49.358;11.256;2022-09-16T11:36:04;15.10;99.90
8643;DHT22;4359;49.358;11.256;2022-09-16T11:41:38;15.00;99.90
8643;DHT22;4359;49.358;11.256;2022-09-16T11:53:17;15.00;99.90
8643;DHT22;4359;49.358;11.256;2022-09-16T12:01:30;14.90;99.90
8643;DHT22;4359;49.358;11.256;2022-09-16T12:04:29;14.80;99.90
8643;DHT22;4359;49.358;11.256;2022-09-16T12:07:01;14.80;99.90
8643;DHT22;4359;49.358;11.256;2022-09-16T12:09:41;14.70;99.90
8643;DHT22;4359;49.358;11.256;2022-09-16T12:12:24;14.70;99.90
8643;DHT22;4359;49.358;11.256;2022-09-16T12:15:06;14.70;99.90
8643;DHT22;4359;49.358;11.256;2022-09-16T12:17:43;14.80;99.90
8643;DHT22;4359;49.358;11.256;2022-09-16T12:20:22;14.70;99.90
8643;DHT22;4359;49.358;11.256;2022-09-16T12:23:04;14.90;99.90
8643;DHT22;4359;49.358;11.256;2022-09-16T12:28:30;15.50;99.90
8643;DHT22;4359;49.358;11.256;2022-09-16T12:31:31;15.80;99.90
8643;DHT22;4359;49.358;11.256;2022-09-16T12:34:03;16.10;99.90
8643;DHT22;4359;49.358;11.256;2022-09-16T12:36:33;15.70;99.90
8643;DHT22;4359;49.358;11.256;2022-09-16T12:39:00;15.70;99.90
8643;DHT22;4359;49.358;11.256;2022-09-16T12:50:46;16.40;99.90
8643;DHT22;4359;49.358;11.256;2022-09-16T13:01:42;16.90;99.90
8643;DHT22;4359;49.358;11.256;2022-09-16T13:04:19;17.10;99.90
8643;DHT22;4359;49.358;11.256;2022-09-16T13:06:50;16.80;99.90
8643;DHT22;4359;49.358;11.256;2022-09-16T13:09:24;16.60;99.90
8643;DHT22;4359;49.358;11.256;2022-09-16T13:12:00;16.60;99.90
8643;DHT22;4359;49.358;11.256;2022-09-16T13:14:45;16.20;99.90
8643;DHT22;4359;49.358;11.256;2022-09-16T13:17:11;16.10;99.90
8643;DHT22;4359;49.358;11.256;2022-09-16T13:19:43;16.20;99.90
8643;DHT22;4359;49.358;11.256;2022-09-16T13:24:45;15.90;99.90
8643;DHT22;4359;49.358;11.256;2022-09-16T13:27:25;16.10;99.90
8643;DHT22;4359;49.358;11.256;2022-09-16T13:29:51;15.90;99.90
8643;DHT22;4359;49.358;11.256;2022-09-16T13:37:50;15.90;99.90
8643;DHT22;4359;49.358;11.256;2022-09-16T13:40:18;16.10;99.90
8643;DHT22;4359;49.358;11.256;2022-09-16T13:42:44;16.30;99.90
8643;DHT22;4359;49.358;11.256;2022-09-16T13:45:39;16.40;99.90
8643;DHT22;4359;49.358;11.256;2022-09-16T13:48:25;17.00;99.90
8643;DHT22;4359;49.358;11.256;2022-09-16T13:50:56;17.30;99.90
8643;DHT22;4359;49.358;11.256;2022-09-16T13:53:29;17.30;99.90
8643;DHT22;4359;49.358;11.256;2022-09-16T13:56:07;17.20;99.90
8643;DHT22;4359;49.358;11.256;2022-09-16T13:58:48;17.50;99.90
8643;DHT22;4359;49.358;11.256;2022-09-16T14:01:44;17.80;99.90
8643;DHT22;4359;49.358;11.256;2022-09-16T14:07:30;17.20;99.90
8643;DHT22;4359;49.358;11.256;2022-09-16T14:13:20;16.90;99.90
8643;DHT22;4359;49.358;11.256;2022-09-16T14:18:19;16.00;99.90
8643;DHT22;4359;49.358;11.256;2022-09-16T14:21:14;15.90;99.90
8643;DHT22;4359;49.358;11.256;2022-09-16T14:23:41;15.90;99.90
8643;DHT22;4359;49.358;11.256;2022-09-16T14:26:11;15.90;99.90
8643;DHT22;4359;49.358;11.256;2022-09-16T14:28:38;15.80;99.90
8643;DHT22;4359;49.358;11.256;2022-09-16T14:31:08;15.60;99.90
8643;DHT22;4359;49.358;11.256;2022-09-16T14:33:43;15.60;99.90
8643;DHT22;4359;49.358;11.256;2022-09-16T14:36:23;15.50;99.90
8643;DHT22;4359;49.358;11.256;2022-09-16T14:38:53;15.30;99.90
8643;DHT22;4359;49.358;11.256;2022-09-16T14:41:45;15.40;99.90
8643;DHT22;4359;49.358;11.256;2022-09-16T14:46:46;15.60;99.90
8643;DHT22;4359;49.358;11.256;2022-09-16T14:49:14;15.70;99.90
8643;DHT22;4359;49.358;11.256;2022-09-16T14:51:47;15.70;99.90
8643;DHT22;4359;49.358;11.256;2022-09-16T14:54:18;15.70;99.90
8643;DHT22;4359;49.358;11.256;2022-09-16T14:57:01;15.70;99.90
8643;DHT22;4359;49.358;11.256;2022-09-16T14:59:31;15.40;99.90
8643;DHT22;4359;49.358;11.256;2022-09-16T15:02:11;15.30;99.90
8643;DHT22;4359;49.358;11.256;2022-09-16T15:04:39;15.20;99.90
8643;DHT22;4359;49.358;11.256;2022-09-16T15:07:13;15.00;99.90
8643;DHT22;4359;49.358;11.256;2022-09-16T15:09:52;14.80;99.90
8643;DHT22;4359;49.358;11.256;2022-09-16T15:12:27;14.60;99.90
8643;DHT22;4359;49.358;11.256;2022-09-16T15:14:54;14.30;99.90
8643;DHT22;4359;49.358;11.256;2022-09-16T15:17:24;14.20;99.90
8643;DHT22;4359;49.358;11.256;2022-09-16T15:19:55;14.30;99.90
8643;DHT22;4359;49.358;11.256;2022-09-16T15:22:22;14.40;99.90
8643;DHT22;4359;49.358;11.256;2022-09-16T15:24:54;14.60;99.90
8643;DHT22;4359;49.358;11.256;2022-09-16T15:27:25;14.70;99.90
8643;DHT22;4359;49.358;11.256;2022-09-16T15:29:55;14.90;99.90
8643;DHT22;4359;49.358;11.256;2022-09-16T15:32:22;15.00;99.90
8643;DHT22;4359;49.358;11.256;2022-09-16T15:35:27;15.00;99.90
8643;DHT22;4359;49.358;11.256;2022-09-16T15:37:56;14.90;99.90
8643;DHT22;4359;49.358;11.256;2022-09-16T15:45:34;14.40;99.90
8643;DHT22;4359;49.358;11.256;2022-09-16T15:48:04;14.30;99.90
8643;DHT22;4359;49.358;11.256;2022-09-16T15:50:59;14.40;99.90
8643;DHT22;4359;49.358;11.256;2022-09-16T15:56:47;14.40;99.90
8643;DHT22;4359;49.358;11.256;2022-09-16T15:58:56;14.40;99.90
8643;DHT22;4359;49.358;11.256;2022-09-16T16:01:43;14.40;99.90
8643;DHT22;4359;49.358;11.256;2022-09-16T16:04:14;14.40;99.90
8643;DHT22;4359;49.358;11.256;2022-09-16T16:06:55;14.50;99.90
8643;DHT22;4359;49.358;11.256;2022-09-16T16:14:19;14.60;99.90
8643;DHT22;4359;49.358;11.256;2022-09-16T16:16:44;14.70;99.90
8643;DHT22;4359;49.358;11.256;2022-09-16T16:19:10;14.50;99.90
8643;DHT22;4359;49.358;11.256;2022-09-16T16:21:39;14.30;99.90
8643;DHT22;4359;49.358;11.256;2022-09-16T16:24:10;14.10;99.90
8643;DHT22;4359;49.358;11.256;2022-09-16T16:26:36;14.00;99.90
8643;DHT22;4359;49.358;11.256;2022-09-16T16:29:02;14.00;99.90
8643;DHT22;4359;49.358;11.256;2022-09-16T16:31:28;14.00;99.90
8643;DHT22;4359;49.358;11.256;2022-09-16T16:33:53;13.90;99.90
8643;DHT22;4359;49.358;11.256;2022-09-16T16:36:20;13.70;99.90
8643;DHT22;4359;49.358;11.256;2022-09-16T16:38:46;13.50;99.90
8643;DHT22;4359;49.358;11.256;2022-09-16T16:41:19;13.40;99.90
8643;DHT22;4359;49.358;11.256;2022-09-16T16:43:45;13.30;99.90
8643;DHT22;4359;49.358;11.256;2022-09-16T16:46:10;13.30;99.90
8643;DHT22;4359;49.358;11.256;2022-09-16T16:48:36;13.20;99.90
8643;DHT22;4359;49.358;11.256;2022-09-16T16:51:08;13.10;99.90
8643;DHT22;4359;49.358;11.256;2022-09-16T16:53:34;13.00;99.90
8643;DHT22;4359;49.358;11.256;2022-09-16T16:56:08;12.90;99.90
8643;DHT22;4359;49.358;11.256;2022-09-16T16:58:34;12.70;99.90
8643;DHT22;4359;49.358;11.256;2022-09-16T17:01:14;12.60;99.90
8643;DHT22;4359;49.358;11.256;2022-09-16T17:03:41;12.50;99.90
8643;DHT22;4359;49.358;11.256;2022-09-16T17:06:08;12.50;99.90
8643;DHT22;4359;49.358;11.256;2022-09-16T17:08:34;12.40;99.90
8643;DHT22;4359;49.358;11.256;2022-09-16T17:11:11;12.40;99.90
8643;DHT22;4359;49.358;11.256;2022-09-16T17:13:39;12.20;99.90
8643;DHT22;4359;49.358;11.256;2022-09-16T17:16:05;12.10;99.90
8643;DHT22;4359;49.358;11.256;2022-09-16T17:18:33;12.00;99.90
8643;DHT22;4359;49.358;11.256;2022-09-16T17:21:12;11.80;99.90
8643;DHT22;4359;49.358;11.256;2022-09-16T17:23:38;11.80;99.90
8643;DHT22;4359;49.358;11.256;2022-09-16T17:26:05;11.60;99.90
8643;DHT22;4359;49.358;11.256;2022-09-16T17:28:33;11.60;99.90
8643;DHT22;4359;49.358;11.256;2022-09-16T17:30:59;11.50;99.90
8643;DHT22;4359;49.358;11.256;2022-09-16T17:33:25;11.40;99.90
8643;DHT22;4359;49.358;11.256;2022-09-16T17:36:04;11.30;99.90
8643;DHT22;4359;49.358;11.256;2022-09-16T17:38:31;11.10;99.90
8643;DHT22;4359;49.358;11.256;2022-09-16T17:43:30;11.00;99.90
8643;DHT22;4359;49.358;11.256;2022-09-16T17:46:00;10.80;99.90
8643;DHT22;4359;49.358;11.256;2022-09-16T17:48:26;10.70;99.90
8643;DHT22;4359;49.358;11.256;2022-09-16T17:50:52;10.60;99.90
8643;DHT22;4359;49.358;11.256;2022-09-16T17:53:19;10.50;99.90
8643;DHT22;4359;49.358;11.256;2022-09-16T17:55:45;10.40;99.90
8643;DHT22;4359;49.358;11.256;2022-09-16T17:58:11;10.30;99.90
8643;DHT22;4359;49.358;11.256;2022-09-16T18:00:37;10.20;99.90
8643;DHT22;4359;49.358;11.256;2022-09-16T18:03:03;10.20;99.90
8643;DHT22;4359;49.358;11.256;2022-09-16T18:05:33;10.10;99.90
8643;DHT22;4359;49.358;11.256;2022-09-16T18:07:59;10.10;99.90
8643;DHT22;4359;49.358;11.256;2022-09-16T18:10:25;10.00;99.90
8643;DHT22;4359;49.358;11.256;2022-09-16T18:12:51;9.90;99.90
8643;DHT22;4359;49.358;11.256;2022-09-16T18:15:17;9.80;99.90
8643;DHT22;4359;49.358;11.256;2022-09-16T18:17:42;9.80;99.90
8643;DHT22;4359;49.358;11.256;2022-09-16T18:20:08;9.70;99.90
8643;DHT22;4359;49.358;11.256;2022-09-16T18:22:34;9.70;99.90
8643;DHT22;4359;49.358;11.256;2022-09-16T18:24:59;9.60;99.90
8643;DHT22;4359;49.358;11.256;2022-09-16T18:27:25;9.50;99.90
8643;DHT22;4359;49.358;11.256;2022-09-16T18:29:51;9.40;99.90
8643;DHT22;4359;49.358;11.256;2022-09-16T18:32:17;9.30;99.90
8643;DHT22;4359;49.358;11.256;2022-09-16T18:34:43;9.10;99.90
8643;DHT22;4359;49.358;11.256;2022-09-16T18:37:08;9.10;99.90
8643;DHT22;4359;49.358;11.256;2022-09-16T18:39:35;9.00;99.90
8643;DHT22;4359;49.358;11.256;2022-09-16T18:42:01;9.00;99.90
8643;DHT22;4359;49.358;11.256;2022-09-16T18:44:26;8.90;99.90
8643;DHT22;4359;49.358;11.256;2022-09-16T18:46:53;8.80;99.90
8643;DHT22;4359;49.358;11.256;2022-09-16T18:49:19;8.90;99.90
8643;DHT22;4359;49.358;11.256;2022-09-16T18:51:49;9.00;99.90
8643;DHT22;4359;49.358;11.256;2022-09-16T18:54:23;9.00;99.90
8643;DHT22;4359;49.358;11.256;2022-09-16T18:56:51;9.00;99.90
8643;DHT22;4359;49.358;11.256;2022-09-16T18:59:19;9.00;99.90
8643;DHT22;4359;49.358;11.256;2022-09-16T19:01:45;8.90;99.90
8643;DHT22;4359;49.358;11.256;2022-09-16T19:04:16;9.00;99.90
8643;DHT22;4359;49.358;11.256;2022-09-16T19:06:44;8.90;99.90